KBZN/BZN METAR and TAF weather

Enter ICAO airport designator
Station Type Date Time Source
KBZN METAR 2018/12/13 15:56 UTC NOAA

KBZN 131556Z 00000KT 10SM CLR M06/M12 A3022 RMK AO2 SLP283 T10611122


Station Type Date Time Source
KBZN Decoded METAR 2018/12/13 15:56 UTC NOAA

BOZEMAN GALLATIN FIELD, MT, United States (KBZN) 45-47N 111-09W 1361M
Dec 13, 2018 - 10:56 AM EST / 2018.12.13 1556 UTC
Wind: Calm:0
Visibility: 10 mile(s):0
Sky conditions: clear
Temperature: 21.0 F (-6.1 C)
Dew Point: 10.0 F (-12.2 C)
Relative Humidity: 61%
Pressure (altimeter): 30.22 in. Hg (1023 hPa)
ob: KBZN 131556Z 00000KT 10SM CLR M06/M12 A3022 RMK AO2 SLP283 T10611122
cycle: 16

Station Type Date Time Source
KBZN TAF 2018/12/13 12:22 UTC NOAA

TAF KBZN 131120Z 1312/1418 18009KT P6SM FEW035 SCT250
FM131600 16007KT P6SM SCT035 BKN200
FM132100 22007KT P6SM BKN030 OVC150
FM140700 VRB04KT P6SM FEW030 SCT250


Example: see airport list